createdAt,value
2024-03-20T00:00:48.814Z,648.00
2024-03-20T00:01:48.928Z,647.00
2024-03-20T00:02:49.038Z,648.00
2024-03-20T00:03:49.158Z,647.00
2024-03-20T00:04:49.252Z,648.00
2024-03-20T00:05:49.384Z,647.00
2024-03-20T00:06:49.477Z,645.00
2024-03-20T00:07:49.619Z,645.00
2024-03-20T00:08:49.715Z,645.00
2024-03-20T00:09:49.827Z,646.00
2024-03-20T00:10:49.932Z,644.00
2024-03-20T00:11:50.055Z,642.00
2024-03-20T00:12:50.162Z,648.00
2024-03-20T00:13:50.296Z,652.00
2024-03-20T00:14:50.400Z,653.00
2024-03-20T00:15:50.523Z,650.00
2024-03-20T00:16:50.626Z,649.00
2024-03-20T00:17:50.749Z,648.00
2024-03-20T00:18:50.870Z,648.00
2024-03-20T00:19:50.987Z,646.00
2024-03-20T00:20:51.104Z,647.00
2024-03-20T00:21:51.217Z,647.00
2024-03-20T00:22:51.337Z,647.00
2024-03-20T00:23:51.451Z,649.00
2024-03-20T00:24:51.561Z,649.00
2024-03-20T00:25:51.683Z,648.00
2024-03-20T00:26:54.326Z,646.00
2024-03-20T00:27:51.802Z,647.00
2024-03-20T00:28:51.794Z,645.00
2024-03-20T00:29:51.801Z,644.00
2024-03-20T00:30:51.810Z,642.00
2024-03-20T00:31:51.817Z,642.00
2024-03-20T00:32:51.823Z,644.00
2024-03-20T00:33:51.828Z,646.00
2024-03-20T00:34:51.805Z,647.00
2024-03-20T00:35:51.820Z,646.00
2024-03-20T00:36:52.344Z,644.00
2024-03-20T00:37:51.914Z,645.00
2024-03-20T00:38:51.819Z,644.00
2024-03-20T00:39:51.821Z,642.00
2024-03-20T00:40:51.912Z,640.00
2024-03-20T00:41:51.834Z,636.00
2024-03-20T00:42:51.834Z,634.00
2024-03-20T00:43:51.831Z,632.00
2024-03-20T00:44:51.835Z,633.00
2024-03-20T00:45:51.859Z,636.00
2024-03-20T00:46:51.840Z,633.00
2024-03-20T00:47:51.860Z,634.00
2024-03-20T00:48:51.847Z,634.00
2024-03-20T00:49:51.839Z,635.00
2024-03-20T00:50:51.834Z,635.00
2024-03-20T00:51:51.832Z,636.00
2024-03-20T00:52:53.091Z,639.00
2024-03-20T00:53:51.842Z,640.00
2024-03-20T00:54:51.838Z,639.00
2024-03-20T00:55:51.854Z,644.00
2024-03-20T00:56:51.832Z,643.00
2024-03-20T00:57:51.838Z,642.00
2024-03-20T00:58:51.934Z,642.00
2024-03-20T00:59:52.064Z,641.00
2024-03-20T01:00:52.180Z,639.00
2024-03-20T01:01:52.297Z,638.00
2024-03-20T01:02:52.400Z,636.00
2024-03-20T01:03:52.546Z,638.00
2024-03-20T01:04:52.658Z,637.00
2024-03-20T01:05:52.793Z,639.00
2024-03-20T01:06:52.904Z,637.00
2024-03-20T01:07:53.005Z,634.00
2024-03-20T01:08:53.132Z,632.00
2024-03-20T01:09:53.249Z,631.00
2024-03-20T01:10:53.385Z,632.00
2024-03-20T01:11:53.501Z,632.00
2024-03-20T01:12:53.609Z,631.00
2024-03-20T01:13:53.749Z,635.00
2024-03-20T01:14:53.853Z,637.00
2024-03-20T01:15:53.976Z,639.00
2024-03-20T01:16:54.084Z,641.00
2024-03-20T01:17:54.217Z,642.00
2024-03-20T01:18:54.335Z,643.00
2024-03-20T01:19:54.452Z,645.00
2024-03-20T01:20:54.575Z,641.00
2024-03-20T01:21:54.699Z,641.00
2024-03-20T01:22:54.828Z,640.00
2024-03-20T01:23:54.946Z,642.00
2024-03-20T01:24:55.076Z,642.00
2024-03-20T01:25:55.196Z,641.00
2024-03-20T01:26:55.303Z,639.00
2024-03-20T01:27:55.454Z,636.00
2024-03-20T01:28:55.555Z,638.00
2024-03-20T01:29:55.682Z,638.00
2024-03-20T01:30:55.814Z,637.00
2024-03-20T01:31:55.933Z,636.00
2024-03-20T01:32:56.085Z,636.00
2024-03-20T01:33:56.173Z,635.00
2024-03-20T01:34:56.292Z,635.00
2024-03-20T01:35:56.430Z,635.00
2024-03-20T01:36:56.543Z,636.00
2024-03-20T01:37:56.673Z,639.00
2024-03-20T01:38:56.784Z,635.00
2024-03-20T01:39:56.932Z,636.00
2024-03-20T01:40:57.050Z,635.00
2024-03-20T01:41:57.172Z,633.00
2024-03-20T01:42:57.287Z,635.00
2024-03-20T01:43:57.417Z,637.00
2024-03-20T01:44:57.543Z,635.00
2024-03-20T01:45:57.690Z,633.00
2024-03-20T01:46:57.790Z,630.00
2024-03-20T01:47:57.914Z,631.00
2024-03-20T01:48:58.044Z,632.00
2024-03-20T01:49:58.160Z,632.00
2024-03-20T01:50:58.331Z,634.00
2024-03-20T01:51:58.408Z,634.00
2024-03-20T01:52:58.518Z,637.00
2024-03-20T01:53:58.648Z,639.00
2024-03-20T01:54:58.765Z,640.00
2024-03-20T01:55:59.393Z,640.00
2024-03-20T01:56:58.926Z,639.00
2024-03-20T01:57:58.936Z,639.00
2024-03-20T01:58:58.950Z,637.00
2024-03-20T01:59:58.977Z,638.00
2024-03-20T02:00:58.999Z,634.00
2024-03-20T02:01:59.031Z,634.00
2024-03-20T02:02:59.057Z,636.00
2024-03-20T02:03:59.185Z,634.00
2024-03-20T02:04:59.289Z,635.00
2024-03-20T02:05:59.424Z,634.00
2024-03-20T02:06:59.546Z,633.00
2024-03-20T02:07:59.684Z,632.00
2024-03-20T02:08:59.783Z,633.00
2024-03-20T02:09:59.906Z,635.00
2024-03-20T02:11:00.012Z,634.00
2024-03-20T02:12:00.186Z,633.00
2024-03-20T02:13:00.263Z,632.00
2024-03-20T02:14:00.403Z,631.00
2024-03-20T02:15:00.514Z,630.00
2024-03-20T02:16:00.657Z,629.00
2024-03-20T02:17:00.766Z,629.00
2024-03-20T02:18:00.903Z,629.00
2024-03-20T02:19:01.018Z,632.00
2024-03-20T02:20:01.142Z,634.00
2024-03-20T02:21:01.256Z,634.00
2024-03-20T02:22:01.474Z,637.00
2024-03-20T02:23:01.534Z,636.00
2024-03-20T02:24:01.640Z,637.00
2024-03-20T02:25:01.795Z,636.00
2024-03-20T02:26:01.877Z,636.00
2024-03-20T02:27:01.995Z,637.00
2024-03-20T02:28:02.114Z,638.00
2024-03-20T02:29:02.232Z,637.00
2024-03-20T02:30:02.372Z,635.00
2024-03-20T02:31:02.492Z,636.00
2024-03-20T02:32:02.622Z,635.00
2024-03-20T02:33:02.731Z,633.00
2024-03-20T02:34:02.864Z,635.00
2024-03-20T02:35:02.990Z,636.00
2024-03-20T02:36:03.119Z,634.00
2024-03-20T02:37:03.233Z,635.00
2024-03-20T02:38:03.366Z,636.00
2024-03-20T02:39:03.483Z,636.00
2024-03-20T02:40:03.617Z,635.00
2024-03-20T02:41:03.736Z,635.00
2024-03-20T02:42:03.861Z,634.00
2024-03-20T02:43:03.985Z,634.00
2024-03-20T02:44:04.092Z,634.00
2024-03-20T02:45:04.204Z,634.00
2024-03-20T02:46:04.339Z,634.00
2024-03-20T02:47:04.466Z,634.00
2024-03-20T02:48:04.593Z,635.00
2024-03-20T02:49:04.714Z,633.00
2024-03-20T02:50:04.850Z,630.00
2024-03-20T02:51:04.967Z,628.00
2024-03-20T02:52:05.104Z,627.00
2024-03-20T02:53:05.213Z,628.00
2024-03-20T02:54:05.369Z,629.00
2024-03-20T02:55:05.462Z,630.00
2024-03-20T02:56:05.592Z,626.00
2024-03-20T02:57:05.704Z,627.00
2024-03-20T02:58:05.837Z,626.00
2024-03-20T02:59:05.973Z,626.00
2024-03-20T03:00:06.096Z,625.00
2024-03-20T03:01:06.231Z,624.00
2024-03-20T03:02:06.342Z,626.00
2024-03-20T03:03:06.456Z,627.00
2024-03-20T03:04:06.590Z,627.00
2024-03-20T03:05:06.726Z,628.00
2024-03-20T03:06:06.848Z,628.00
2024-03-20T03:07:06.963Z,628.00
2024-03-20T03:08:07.105Z,626.00
2024-03-20T03:09:07.213Z,627.00
2024-03-20T03:10:07.349Z,625.00
2024-03-20T03:11:07.469Z,623.00
2024-03-20T03:12:07.582Z,625.00
2024-03-20T03:13:07.704Z,625.00
2024-03-20T03:14:07.837Z,624.00
2024-03-20T03:15:08.393Z,624.00
2024-03-20T03:16:08.100Z,620.00
2024-03-20T03:17:08.214Z,620.00
2024-03-20T03:18:08.334Z,617.00
2024-03-20T03:19:08.446Z,618.00
2024-03-20T03:20:08.589Z,618.00
2024-03-20T03:21:08.698Z,618.00
2024-03-20T03:22:08.830Z,621.00
2024-03-20T03:23:08.953Z,621.00
2024-03-20T03:24:09.080Z,619.00
2024-03-20T03:25:09.275Z,617.00
2024-03-20T03:26:09.358Z,614.00
2024-03-20T03:27:09.455Z,614.00
2024-03-20T03:28:09.598Z,614.00
2024-03-20T03:29:09.700Z,614.00
2024-03-20T03:30:09.821Z,615.00
2024-03-20T03:31:17.217Z,621.00
2024-03-20T03:32:17.219Z,625.00
2024-03-20T03:33:17.213Z,623.00
2024-03-20T03:34:17.813Z,622.00
2024-03-20T03:35:17.214Z,622.00
2024-03-20T03:36:17.224Z,620.00
2024-03-20T03:37:17.215Z,620.00
2024-03-20T03:38:17.200Z,620.00
2024-03-20T03:39:17.211Z,623.00
2024-03-20T03:40:17.207Z,624.00
2024-03-20T03:41:17.399Z,624.00
2024-03-20T03:42:17.215Z,624.00
2024-03-20T03:43:17.274Z,624.00
2024-03-20T03:44:17.284Z,626.00
2024-03-20T03:45:17.269Z,627.00
2024-03-20T03:46:17.269Z,627.00
2024-03-20T03:47:17.287Z,627.00
2024-03-20T03:48:17.286Z,627.00
2024-03-20T03:49:17.285Z,626.00
2024-03-20T03:50:17.299Z,629.00
2024-03-20T03:51:17.284Z,625.00
2024-03-20T03:52:17.285Z,627.00
2024-03-20T03:53:17.298Z,626.00
2024-03-20T03:54:17.314Z,624.00
2024-03-20T03:55:17.310Z,623.00
2024-03-20T03:56:17.420Z,621.00
2024-03-20T03:57:17.655Z,619.00
2024-03-20T03:58:17.720Z,617.00
2024-03-20T03:59:17.788Z,618.00
2024-03-20T04:00:17.891Z,620.00
2024-03-20T04:01:18.040Z,615.00
2024-03-20T04:02:18.131Z,614.00
2024-03-20T04:03:18.275Z,613.00
2024-03-20T04:04:18.392Z,611.00
2024-03-20T04:05:18.520Z,612.00
2024-03-20T04:06:18.638Z,613.00
2024-03-20T04:07:18.764Z,612.00
2024-03-20T04:08:18.887Z,610.00
2024-03-20T04:09:19.071Z,610.00
2024-03-20T04:10:19.135Z,608.00
2024-03-20T04:11:19.268Z,609.00
2024-03-20T04:12:19.378Z,610.00
2024-03-20T04:13:19.511Z,611.00
2024-03-20T04:14:19.628Z,612.00
2024-03-20T04:15:19.741Z,612.00
2024-03-20T04:16:19.853Z,612.00
2024-03-20T04:17:20.003Z,610.00
2024-03-20T04:18:20.086Z,611.00
2024-03-20T04:19:20.224Z,611.00
2024-03-20T04:20:20.326Z,614.00
2024-03-20T04:21:20.466Z,615.00
2024-03-20T04:22:20.571Z,617.00
2024-03-20T04:23:20.687Z,619.00
2024-03-20T04:24:20.821Z,620.00
2024-03-20T04:25:20.942Z,621.00
2024-03-20T04:26:21.082Z,622.00
2024-03-20T04:27:21.196Z,623.00
2024-03-20T04:28:21.323Z,626.00
2024-03-20T04:29:21.439Z,625.00
2024-03-20T04:30:21.551Z,626.00
2024-03-20T04:31:21.687Z,625.00
2024-03-20T04:32:21.789Z,626.00
2024-03-20T04:33:21.918Z,627.00
2024-03-20T04:34:22.035Z,626.00
2024-03-20T04:35:22.167Z,628.00
2024-03-20T04:36:22.278Z,627.00
2024-03-20T04:37:22.415Z,627.00
2024-03-20T04:38:22.518Z,624.00
2024-03-20T04:39:22.643Z,622.00
2024-03-20T04:40:22.757Z,619.00
2024-03-20T04:41:22.910Z,616.00
2024-03-20T04:42:23.007Z,615.00
2024-03-20T04:43:23.129Z,616.00
2024-03-20T04:44:23.235Z,614.00
2024-03-20T04:45:23.359Z,613.00
2024-03-20T04:46:23.472Z,613.00
2024-03-20T04:47:25.775Z,612.00
2024-03-20T04:48:23.599Z,610.00
2024-03-20T04:49:23.634Z,611.00
2024-03-20T04:50:23.636Z,609.00
2024-03-20T04:51:23.647Z,611.00
2024-03-20T04:52:23.636Z,614.00
2024-03-20T04:53:23.652Z,614.00
2024-03-20T04:54:25.402Z,617.00
2024-03-20T04:55:23.650Z,618.00
2024-03-20T04:56:23.645Z,616.00
2024-03-20T04:57:23.648Z,619.00
2024-03-20T04:58:23.670Z,620.00
2024-03-20T04:59:23.661Z,619.00
2024-03-20T05:00:23.647Z,618.00
2024-03-20T05:01:23.660Z,615.00
2024-03-20T05:02:23.647Z,617.00
2024-03-20T05:03:23.672Z,615.00
2024-03-20T05:04:23.666Z,618.00
2024-03-20T05:05:23.658Z,616.00
2024-03-20T05:06:23.730Z,616.00
2024-03-20T05:07:23.853Z,614.00
2024-03-20T05:08:23.963Z,615.00
2024-03-20T05:09:24.082Z,615.00
2024-03-20T05:10:24.192Z,617.00
2024-03-20T05:11:24.295Z,617.00
2024-03-20T05:12:24.396Z,617.00
2024-03-20T05:13:24.521Z,618.00
2024-03-20T05:14:24.612Z,621.00
2024-03-20T05:15:24.746Z,618.00
2024-03-20T05:16:24.845Z,617.00
2024-03-20T05:17:24.951Z,614.00
2024-03-20T05:18:25.058Z,613.00
2024-03-20T05:19:25.177Z,614.00
2024-03-20T05:20:25.283Z,617.00
2024-03-20T05:21:25.404Z,617.00
2024-03-20T05:22:25.520Z,618.00
2024-03-20T05:23:25.653Z,618.00
2024-03-20T05:24:25.777Z,616.00
2024-03-20T05:25:25.887Z,614.00
2024-03-20T05:26:26.000Z,613.00
2024-03-20T05:27:26.110Z,615.00
2024-03-20T05:28:26.225Z,616.00
2024-03-20T05:29:27.265Z,612.00
2024-03-20T05:30:26.474Z,612.00
2024-03-20T05:31:26.595Z,614.00
2024-03-20T05:32:26.720Z,615.00
2024-03-20T05:33:26.838Z,613.00
2024-03-20T05:34:26.951Z,613.00
2024-03-20T05:35:27.037Z,614.00
2024-03-20T05:36:27.148Z,613.00
2024-03-20T05:37:27.288Z,614.00
2024-03-20T05:38:27.393Z,615.00
2024-03-20T05:39:27.502Z,613.00
2024-03-20T05:40:27.602Z,611.00
2024-03-20T05:41:27.739Z,610.00
2024-03-20T05:42:27.833Z,610.00
2024-03-20T05:43:27.959Z,613.00
2024-03-20T05:44:28.067Z,612.00
2024-03-20T05:45:28.267Z,615.00
2024-03-20T05:46:28.319Z,614.00
2024-03-20T05:47:28.431Z,613.00
2024-03-20T05:48:28.546Z,611.00
2024-03-20T05:49:28.663Z,612.00
2024-03-20T05:50:28.780Z,609.00
2024-03-20T05:51:28.887Z,608.00
2024-03-20T05:52:29.001Z,606.00
2024-03-20T05:53:29.104Z,606.00
2024-03-20T05:54:29.201Z,605.00
2024-03-20T05:55:29.309Z,607.00
2024-03-20T05:56:29.422Z,608.00
2024-03-20T05:57:29.616Z,610.00
2024-03-20T05:58:29.664Z,609.00
2024-03-20T05:59:29.753Z,610.00
2024-03-20T06:00:29.905Z,611.00
2024-03-20T06:01:29.963Z,614.00
2024-03-20T06:02:30.068Z,615.00
2024-03-20T06:03:30.194Z,616.00
2024-03-20T06:04:30.306Z,614.00
2024-03-20T06:05:30.442Z,613.00
2024-03-20T06:06:30.562Z,613.00
2024-03-20T06:07:30.681Z,614.00
2024-03-20T06:09:30.813Z,616.00
2024-03-20T06:10:30.814Z,618.00
2024-03-20T06:11:30.814Z,618.00
2024-03-20T06:12:30.810Z,616.00
2024-03-20T06:13:30.801Z,615.00
2024-03-20T06:14:30.820Z,613.00
2024-03-20T06:15:30.807Z,613.00
2024-03-20T06:16:30.822Z,611.00
2024-03-20T06:17:30.803Z,609.00
2024-03-20T06:18:30.806Z,609.00
2024-03-20T06:19:30.809Z,606.00
2024-03-20T06:20:30.822Z,603.00
2024-03-20T06:21:30.861Z,602.00
2024-03-20T06:22:30.853Z,598.00
2024-03-20T06:23:30.822Z,599.00
2024-03-20T06:24:30.837Z,598.00
2024-03-20T06:25:30.830Z,599.00
2024-03-20T06:26:30.831Z,599.00
2024-03-20T06:27:30.836Z,599.00
2024-03-20T06:28:30.829Z,598.00
2024-03-20T06:29:30.819Z,600.00
2024-03-20T06:30:30.877Z,599.00
2024-03-20T06:31:30.827Z,600.00
2024-03-20T06:32:30.829Z,596.00
2024-03-20T06:33:30.909Z,595.00
2024-03-20T06:34:33.525Z,597.00
2024-03-20T06:35:30.848Z,596.00
2024-03-20T06:36:30.872Z,594.00
2024-03-20T06:37:30.834Z,594.00
2024-03-20T06:38:30.854Z,592.00
2024-03-20T06:39:30.843Z,594.00
2024-03-20T06:40:30.857Z,590.00
2024-03-20T06:41:30.929Z,593.00
2024-03-20T06:42:30.955Z,591.00
2024-03-20T06:43:30.864Z,591.00
2024-03-20T06:44:30.863Z,592.00
2024-03-20T06:45:30.905Z,592.00
2024-03-20T06:46:30.873Z,590.00
2024-03-20T06:47:30.887Z,590.00
2024-03-20T06:48:30.880Z,589.00
2024-03-20T06:49:30.874Z,588.00
2024-03-20T06:50:30.874Z,587.00
2024-03-20T06:51:30.883Z,587.00
2024-03-20T06:52:30.875Z,586.00
2024-03-20T06:53:30.873Z,585.00
2024-03-20T06:54:30.939Z,586.00
2024-03-20T06:55:30.874Z,586.00
2024-03-20T06:56:30.887Z,587.00
2024-03-20T06:57:30.892Z,587.00
2024-03-20T06:58:30.890Z,587.00
2024-03-20T06:59:30.880Z,587.00
2024-03-20T07:00:30.919Z,587.00
2024-03-20T07:01:30.890Z,587.00
2024-03-20T07:02:30.910Z,588.00
2024-03-20T07:03:30.904Z,591.00
2024-03-20T07:04:30.895Z,589.00
2024-03-20T07:05:30.874Z,590.00
2024-03-20T07:06:30.904Z,594.00
2024-03-20T07:07:30.898Z,599.00
2024-03-20T07:08:30.900Z,605.00
2024-03-20T07:09:30.956Z,606.00
2024-03-20T07:10:33.223Z,614.00
2024-03-20T07:11:30.988Z,700.00
2024-03-20T07:12:31.021Z,724.00
2024-03-20T07:13:30.981Z,736.00
2024-03-20T07:14:30.982Z,710.00
2024-03-20T07:15:31.001Z,722.00
2024-03-20T07:16:30.991Z,746.00
2024-03-20T07:17:30.977Z,785.00
2024-03-20T07:18:31.000Z,861.00
2024-03-20T07:19:30.982Z,870.00
2024-03-20T07:20:31.001Z,874.00
2024-03-20T07:21:30.996Z,847.00
2024-03-20T07:22:30.998Z,848.00
2024-03-20T07:23:31.013Z,856.00
2024-03-20T07:24:31.010Z,868.00
2024-03-20T07:25:33.630Z,880.00
2024-03-20T07:26:31.006Z,891.00
2024-03-20T07:27:31.008Z,897.00
2024-03-20T07:28:31.011Z,901.00
2024-03-20T07:29:31.030Z,908.00
2024-03-20T07:30:30.993Z,911.00
2024-03-20T07:31:31.011Z,915.00
2024-03-20T07:32:31.044Z,915.00
2024-03-20T07:33:31.017Z,921.00
2024-03-20T07:34:31.003Z,932.00
2024-03-20T07:35:31.013Z,942.00
2024-03-20T07:36:31.000Z,957.00
2024-03-20T07:37:31.018Z,979.00
2024-03-20T07:38:31.018Z,994.00
2024-03-20T07:39:31.011Z,1004.00
2024-03-20T07:40:31.017Z,1015.00
2024-03-20T07:41:31.016Z,1024.00
2024-03-20T07:42:31.052Z,1027.00
2024-03-20T07:43:31.017Z,1025.00
2024-03-20T07:44:31.035Z,1032.00
2024-03-20T07:45:31.093Z,1044.00
2024-03-20T07:46:31.025Z,1052.00
2024-03-20T07:47:31.027Z,1062.00
2024-03-20T07:48:31.024Z,1069.00
2024-03-20T07:49:31.024Z,1075.00
2024-03-20T07:50:31.046Z,1078.00
2024-03-20T07:51:31.036Z,1089.00
2024-03-20T07:52:31.041Z,1099.00
2024-03-20T07:53:31.044Z,1112.00
2024-03-20T07:54:31.043Z,1128.00
2024-03-20T07:55:31.263Z,1142.00
2024-03-20T07:56:31.147Z,1136.00
2024-03-20T07:57:31.061Z,1137.00
2024-03-20T07:58:31.201Z,1139.00
2024-03-20T07:59:31.475Z,1151.00
2024-03-20T08:00:31.093Z,1165.00
2024-03-20T08:01:31.083Z,1201.00
2024-03-20T08:02:31.200Z,1236.00
2024-03-20T08:03:31.137Z,1318.00
2024-03-20T08:04:31.140Z,1320.00
2024-03-20T08:05:31.052Z,1329.00
2024-03-20T08:06:31.103Z,1340.00
2024-03-20T08:07:31.041Z,1346.00
2024-03-20T08:08:31.043Z,1363.00
2024-03-20T08:09:38.782Z,1443.00
2024-03-20T08:10:38.783Z,1455.00
2024-03-20T08:11:38.843Z,1461.00
2024-03-20T08:12:38.805Z,1469.00
2024-03-20T08:13:38.777Z,1473.00
2024-03-20T08:14:38.866Z,1481.00
2024-03-20T08:15:38.836Z,1493.00
2024-03-20T08:16:40.920Z,1505.00
2024-03-20T08:17:38.861Z,1511.00
2024-03-20T08:18:38.912Z,1527.00
2024-03-20T08:19:38.817Z,1539.00
2024-03-20T08:20:38.847Z,1573.00
2024-03-20T08:21:38.917Z,1598.00
2024-03-20T08:22:38.829Z,1623.00
2024-03-20T08:23:38.860Z,1634.00
2024-03-20T08:24:38.862Z,1651.00
2024-03-20T08:25:38.918Z,1675.00
2024-03-20T08:26:38.922Z,1699.00
2024-03-20T08:27:39.016Z,1731.00
2024-03-20T08:28:39.106Z,1752.00
2024-03-20T08:29:39.188Z,1763.00
2024-03-20T08:30:39.503Z,1778.00
2024-03-20T08:31:39.410Z,1810.00
2024-03-20T08:32:39.505Z,1820.00
2024-03-20T08:33:39.588Z,1824.00
2024-03-20T08:34:39.689Z,1831.00
2024-03-20T08:35:39.809Z,1844.00
2024-03-20T08:36:39.932Z,1859.00
2024-03-20T08:37:39.986Z,1870.00
2024-03-20T08:38:40.094Z,1886.00
2024-03-20T08:39:40.258Z,1900.00
2024-03-20T08:40:40.294Z,1905.00
2024-03-20T08:41:40.384Z,1917.00
2024-03-20T08:42:40.507Z,1928.00
2024-03-20T08:43:40.598Z,1972.00
2024-03-20T08:44:40.699Z,1986.00
2024-03-20T08:45:40.882Z,1996.00
2024-03-20T08:46:40.869Z,2005.00
2024-03-20T08:47:40.967Z,2017.00
2024-03-20T08:48:41.154Z,2036.00
2024-03-20T08:49:41.150Z,2051.00
2024-03-20T08:50:41.228Z,2053.00
2024-03-20T08:51:41.381Z,2051.00
2024-03-20T08:52:41.430Z,2050.00
2024-03-20T08:53:41.525Z,2050.00
2024-03-20T08:54:41.656Z,2057.00
2024-03-20T08:55:41.716Z,2057.00
2024-03-20T08:56:41.788Z,2051.00
2024-03-20T08:57:41.902Z,2040.00
2024-03-20T08:58:42.008Z,2031.00
2024-03-20T08:59:42.037Z,2030.00
2024-03-20T09:00:42.152Z,2024.00
2024-03-20T09:01:42.169Z,2022.00
2024-03-20T09:02:42.252Z,2018.00
2024-03-20T09:03:42.285Z,2017.00
2024-03-20T09:04:42.354Z,2018.00
2024-03-20T09:05:42.494Z,2012.00
2024-03-20T09:06:42.586Z,2003.00
2024-03-20T09:07:42.519Z,2001.00
2024-03-20T09:08:42.563Z,1995.00
2024-03-20T09:09:42.658Z,1992.00
2024-03-20T09:10:42.726Z,1992.00
2024-03-20T09:11:42.740Z,1988.00
2024-03-20T09:12:42.806Z,1986.00
2024-03-20T09:13:42.900Z,1983.00
2024-03-20T09:14:42.892Z,1982.00
2024-03-20T09:15:43.133Z,1982.00
2024-03-20T09:16:43.022Z,1977.00
2024-03-20T09:17:43.064Z,1977.00
2024-03-20T09:18:43.260Z,1974.00
2024-03-20T09:19:43.219Z,1970.00
2024-03-20T09:20:43.285Z,1969.00
2024-03-20T09:21:43.496Z,1968.00
2024-03-20T09:22:43.394Z,1964.00
2024-03-20T09:23:43.535Z,1966.00
2024-03-20T09:24:43.543Z,1963.00
2024-03-20T09:25:43.590Z,1957.00
2024-03-20T09:26:43.658Z,1956.00
2024-03-20T09:27:43.705Z,1957.00
2024-03-20T09:28:43.765Z,1958.00
2024-03-20T09:29:43.899Z,1954.00
2024-03-20T09:30:43.945Z,1948.00
2024-03-20T09:31:43.947Z,1944.00
2024-03-20T09:32:44.021Z,1943.00
2024-03-20T09:33:44.185Z,1940.00
2024-03-20T09:34:44.190Z,1941.00
2024-03-20T09:35:44.207Z,1945.00
2024-03-20T09:36:44.296Z,1944.00
2024-03-20T09:37:44.368Z,1942.00
2024-03-20T09:38:44.401Z,1941.00
2024-03-20T09:39:44.498Z,1940.00
2024-03-20T09:40:44.598Z,1949.00
2024-03-20T09:41:44.659Z,1950.00
2024-03-20T09:42:44.870Z,1947.00
2024-03-20T09:43:44.834Z,1947.00
2024-03-20T09:44:44.955Z,1944.00
2024-03-20T09:45:44.998Z,1942.00
2024-03-20T09:46:45.087Z,1941.00
2024-03-20T09:47:45.175Z,1937.00
2024-03-20T09:48:45.311Z,1936.00
2024-03-20T09:49:45.373Z,1933.00
2024-03-20T09:50:45.486Z,1803.00
2024-03-20T09:51:45.549Z,1782.00
2024-03-20T09:52:45.621Z,1838.00
2024-03-20T09:53:45.701Z,1851.00
2024-03-20T09:54:45.791Z,1849.00
2024-03-20T09:55:45.848Z,1851.00
2024-03-20T09:56:45.935Z,1832.00
2024-03-20T09:57:46.014Z,1814.00
2024-03-20T09:58:46.080Z,1799.00
2024-03-20T09:59:46.145Z,1796.00
2024-03-20T10:00:46.247Z,1797.00
2024-03-20T10:01:46.312Z,1805.00
2024-03-20T10:02:46.378Z,1817.00
2024-03-20T10:03:46.448Z,1828.00
2024-03-20T10:04:52.774Z,1827.00
2024-03-20T10:05:47.525Z,1822.00
2024-03-20T10:06:46.531Z,1819.00
2024-03-20T10:07:46.520Z,1814.00
2024-03-20T10:08:46.519Z,1811.00
2024-03-20T10:09:46.524Z,1811.00
2024-03-20T10:10:46.530Z,1813.00
2024-03-20T10:11:46.547Z,1814.00
2024-03-20T10:12:46.523Z,1810.00
2024-03-20T10:13:46.526Z,1820.00
2024-03-20T10:14:46.536Z,1824.00
2024-03-20T10:15:46.571Z,1813.00
2024-03-20T10:16:49.661Z,1812.00
2024-03-20T10:17:47.621Z,1803.00
2024-03-20T10:18:46.624Z,1800.00
2024-03-20T10:19:46.617Z,1798.00
2024-03-20T10:20:46.620Z,1803.00
2024-03-20T10:21:46.613Z,1807.00
2024-03-20T10:22:56.460Z,1809.00
2024-03-20T10:23:47.631Z,1809.00
2024-03-20T10:24:46.630Z,1807.00
2024-03-20T10:25:46.646Z,1809.00
2024-03-20T10:26:46.729Z,1817.00
2024-03-20T10:27:46.629Z,1824.00
2024-03-20T10:28:46.625Z,1823.00
2024-03-20T10:29:52.802Z,1824.00
2024-03-20T10:30:47.707Z,1828.00
2024-03-20T10:31:46.789Z,1827.00
2024-03-20T10:32:46.660Z,1830.00
2024-03-20T10:33:46.665Z,1831.00
2024-03-20T10:34:46.734Z,1835.00
2024-03-20T10:35:46.651Z,1837.00
2024-03-20T10:36:46.860Z,1838.00
2024-03-20T10:37:46.660Z,1841.00
2024-03-20T10:38:46.662Z,1843.00
2024-03-20T10:39:46.673Z,1842.00
2024-03-20T10:40:46.712Z,1846.00
2024-03-20T10:41:46.765Z,1856.00
2024-03-20T10:42:46.792Z,1866.00
2024-03-20T10:43:46.859Z,1867.00
2024-03-20T10:44:46.913Z,1867.00
2024-03-20T10:45:47.000Z,1868.00
2024-03-20T10:46:47.010Z,1998.00
2024-03-20T10:47:47.037Z,1944.00
2024-03-20T10:48:47.049Z,1920.00
2024-03-20T10:49:47.078Z,1905.00
2024-03-20T10:50:47.122Z,1903.00
2024-03-20T10:51:47.195Z,1898.00
2024-03-20T10:52:47.277Z,1895.00
2024-03-20T10:53:47.363Z,1899.00
2024-03-20T10:54:47.603Z,1903.00
2024-03-20T10:55:47.524Z,1911.00
2024-03-20T10:56:47.613Z,1866.00
2024-03-20T10:57:47.685Z,1676.00
2024-03-20T10:58:47.734Z,1569.00
2024-03-20T10:59:47.849Z,1563.00
2024-03-20T11:00:47.869Z,1459.00
2024-03-20T11:01:47.978Z,1566.00
2024-03-20T11:02:48.021Z,1188.00
2024-03-20T11:03:48.087Z,1231.00
2024-03-20T11:04:48.147Z,1018.00
2024-03-20T11:05:48.196Z,1151.00
2024-03-20T11:06:48.264Z,1039.00
2024-03-20T11:07:48.314Z,998.00
2024-03-20T11:08:48.384Z,1205.00
2024-03-20T11:09:48.441Z,960.00
2024-03-20T11:10:48.517Z,1183.00
2024-03-20T11:11:48.557Z,969.00
2024-03-20T11:12:48.615Z,1026.00
2024-03-20T11:13:48.776Z,960.00
2024-03-20T11:14:48.712Z,1150.00
2024-03-20T11:15:49.811Z,848.00
2024-03-20T11:16:53.941Z,1061.00
2024-03-20T11:17:48.880Z,975.00
2024-03-20T11:18:48.878Z,1102.00
2024-03-20T11:19:48.946Z,1192.00
2024-03-20T11:20:48.869Z,1284.00
2024-03-20T11:21:48.883Z,1319.00
2024-03-20T11:22:48.905Z,1366.00
2024-03-20T11:23:48.897Z,1344.00
2024-03-20T11:24:48.902Z,1292.00
2024-03-20T11:25:48.907Z,1217.00
2024-03-20T11:26:53.725Z,1215.00
2024-03-20T11:27:48.959Z,1208.00
2024-03-20T11:28:48.934Z,1206.00
2024-03-20T11:29:48.938Z,1214.00
2024-03-20T11:30:48.942Z,1222.00
2024-03-20T11:31:48.948Z,1223.00
2024-03-20T11:32:48.945Z,1229.00
2024-03-20T11:33:48.959Z,1236.00
2024-03-20T11:34:48.937Z,1246.00
2024-03-20T11:35:50.140Z,1251.00
2024-03-20T11:36:48.981Z,1259.00
2024-03-20T11:37:48.995Z,1266.00
2024-03-20T11:38:48.989Z,1274.00
2024-03-20T11:39:48.989Z,1285.00
2024-03-20T11:40:48.975Z,1298.00
2024-03-20T11:41:49.032Z,1310.00
2024-03-20T11:42:49.084Z,1310.00
2024-03-20T11:43:49.177Z,1319.00
2024-03-20T11:44:49.237Z,1332.00
2024-03-20T11:45:49.344Z,1341.00
2024-03-20T11:46:49.426Z,1351.00
2024-03-20T11:47:49.504Z,1360.00
2024-03-20T11:48:49.610Z,1368.00
2024-03-20T11:49:49.691Z,1375.00
2024-03-20T11:50:49.767Z,1383.00
2024-03-20T11:51:49.866Z,1387.00
2024-03-20T11:52:49.961Z,1391.00
2024-03-20T11:53:50.264Z,1393.00
2024-03-20T11:54:50.119Z,1394.00
2024-03-20T11:55:50.195Z,1385.00
2024-03-20T11:56:50.268Z,1378.00
2024-03-20T11:57:50.350Z,1307.00
2024-03-20T11:58:50.433Z,1312.00
2024-03-20T11:59:50.531Z,1305.00
2024-03-20T12:00:50.581Z,1289.00
2024-03-20T12:01:50.673Z,1268.00
2024-03-20T12:02:50.750Z,1141.00
2024-03-20T12:03:50.792Z,1164.00
2024-03-20T12:04:50.843Z,1020.00
2024-03-20T12:05:50.914Z,1132.00
2024-03-20T12:06:50.960Z,1111.00
2024-03-20T12:07:51.054Z,1074.00
2024-03-20T12:08:51.102Z,1091.00
2024-03-20T12:09:51.157Z,1088.00
2024-03-20T12:10:51.188Z,1078.00
2024-03-20T12:11:51.269Z,1079.00
2024-03-20T12:12:51.307Z,1070.00
2024-03-20T12:13:51.359Z,1063.00
2024-03-20T12:14:51.426Z,1056.00
2024-03-20T12:15:51.519Z,1054.00
2024-03-20T12:16:51.551Z,1050.00
2024-03-20T12:17:51.612Z,1037.00
2024-03-20T12:18:51.656Z,1029.00
2024-03-20T12:19:51.731Z,1022.00
2024-03-20T12:20:51.781Z,1014.00
2024-03-20T12:21:51.855Z,1012.00